sensor_id;sensor_type;location;lat;lon;timestamp;P1;durP1;ratioP1;P2;durP2;ratioP2
31238;SDS011;17871;31.584;74.450;2022-08-19T00:01:54;17.60;;;9.95;;
31238;SDS011;17871;31.584;74.450;2022-08-19T00:04:29;13.80;;;9.85;;
31238;SDS011;17871;31.584;74.450;2022-08-19T00:07:05;20.45;;;10.32;;
31238;SDS011;17871;31.584;74.450;2022-08-19T00:09:34;15.77;;;9.75;;
31238;SDS011;17871;31.584;74.450;2022-08-19T00:12:03;17.17;;;9.77;;
31238;SDS011;17871;31.584;74.450;2022-08-19T00:14:33;26.88;;;9.50;;
31238;SDS011;17871;31.584;74.450;2022-08-19T00:17:03;18.98;;;9.98;;
31238;SDS011;17871;31.584;74.450;2022-08-19T00:19:33;14.45;;;9.68;;
31238;SDS011;17871;31.584;74.450;2022-08-19T00:22:03;20.65;;;10.65;;
31238;SDS011;17871;31.584;74.450;2022-08-19T00:24:34;18.40;;;10.75;;
31238;SDS011;17871;31.584;74.450;2022-08-19T00:27:04;21.95;;;11.75;;
31238;SDS011;17871;31.584;74.450;2022-08-19T00:29:52;17.58;;;12.02;;
31238;SDS011;17871;31.584;74.450;2022-08-19T00:32:22;18.75;;;11.80;;
31238;SDS011;17871;31.584;74.450;2022-08-19T00:34:53;21.98;;;12.68;;
31238;SDS011;17871;31.584;74.450;2022-08-19T00:37:22;20.60;;;12.02;;
31238;SDS011;17871;31.584;74.450;2022-08-19T00:39:54;28.27;;;13.68;;
31238;SDS011;17871;31.584;74.450;2022-08-19T00:42:24;18.52;;;12.95;;
31238;SDS011;17871;31.584;74.450;2022-08-19T00:47:25;22.55;;;13.02;;
31238;SDS011;17871;31.584;74.450;2022-08-19T00:49:57;17.77;;;10.98;;
31238;SDS011;17871;31.584;74.450;2022-08-19T00:52:35;21.83;;;11.05;;
31238;SDS011;17871;31.584;74.450;2022-08-19T00:55:08;19.38;;;10.65;;
31238;SDS011;17871;31.584;74.450;2022-08-19T00:57:40;13.73;;;9.50;;
31238;SDS011;17871;31.584;74.450;2022-08-19T01:00:15;16.42;;;10.18;;
31238;SDS011;17871;31.584;74.450;2022-08-19T01:02:47;19.92;;;10.70;;
31238;SDS011;17871;31.584;74.450;2022-08-19T01:05:35;17.65;;;11.05;;
31238;SDS011;17871;31.584;74.450;2022-08-19T01:08:05;17.55;;;10.93;;
31238;SDS011;17871;31.584;74.450;2022-08-19T01:10:37;51.83;;;12.88;;
31238;SDS011;17871;31.584;74.450;2022-08-19T01:13:13;25.20;;;10.07;;
31238;SDS011;17871;31.584;74.450;2022-08-19T01:15:47;16.65;;;10.57;;
31238;SDS011;17871;31.584;74.450;2022-08-19T01:18:31;16.90;;;10.40;;
31238;SDS011;17871;31.584;74.450;2022-08-19T01:21:09;16.63;;;10.05;;
31238;SDS011;17871;31.584;74.450;2022-08-19T01:24:00;21.15;;;10.55;;
31238;SDS011;17871;31.584;74.450;2022-08-19T01:26:37;16.58;;;11.43;;
31238;SDS011;17871;31.584;74.450;2022-08-19T01:29:12;17.30;;;9.90;;
31238;SDS011;17871;31.584;74.450;2022-08-19T01:31:41;18.40;;;8.73;;
31238;SDS011;17871;31.584;74.450;2022-08-19T01:34:10;18.05;;;6.80;;
31238;SDS011;17871;31.584;74.450;2022-08-19T01:36:41;15.40;;;8.32;;
31238;SDS011;17871;31.584;74.450;2022-08-19T01:39:19;10.15;;;6.80;;
31238;SDS011;17871;31.584;74.450;2022-08-19T01:41:52;15.30;;;7.38;;
31238;SDS011;17871;31.584;74.450;2022-08-19T01:44:22;11.68;;;7.88;;
31238;SDS011;17871;31.584;74.450;2022-08-19T01:46:52;17.60;;;7.80;;
31238;SDS011;17871;31.584;74.450;2022-08-19T01:49:22;14.00;;;8.88;;
31238;SDS011;17871;31.584;74.450;2022-08-19T01:51:53;11.38;;;6.90;;
31238;SDS011;17871;31.584;74.450;2022-08-19T01:54:23;14.77;;;8.20;;
31238;SDS011;17871;31.584;74.450;2022-08-19T01:57:03;16.60;;;8.32;;
31238;SDS011;17871;31.584;74.450;2022-08-19T01:59:35;18.33;;;8.30;;
31238;SDS011;17871;31.584;74.450;2022-08-19T02:02:04;14.57;;;7.88;;
31238;SDS011;17871;31.584;74.450;2022-08-19T02:04:37;19.50;;;9.13;;
31238;SDS011;17871;31.584;74.450;2022-08-19T08:49:55;7.25;;;1.75;;
31238;SDS011;17871;31.584;74.450;2022-08-19T08:52:34;11.50;;;2.78;;
31238;SDS011;17871;31.584;74.450;2022-08-19T08:55:13;9.95;;;2.75;;
31238;SDS011;17871;31.584;74.450;2022-08-19T08:57:52;13.15;;;3.08;;
31238;SDS011;17871;31.584;74.450;2022-08-19T09:03:22;9.18;;;1.27;;
31238;SDS011;17871;31.584;74.450;2022-08-19T09:06:02;9.35;;;1.75;;
31238;SDS011;17871;31.584;74.450;2022-08-19T09:12:08;13.10;;;2.05;;
31238;SDS011;17871;31.584;74.450;2022-08-19T09:17:38;3.55;;;1.48;;
31238;SDS011;17871;31.584;74.450;2022-08-19T09:22:52;5.15;;;2.00;;
31238;SDS011;17871;31.584;74.450;2022-08-19T09:25:22;8.00;;;2.35;;
31238;SDS011;17871;31.584;74.450;2022-08-19T09:27:56;22.88;;;2.83;;
31238;SDS011;17871;31.584;74.450;2022-08-19T09:30:33;1.98;;;1.58;;
31238;SDS011;17871;31.584;74.450;2022-08-19T09:33:10;12.50;;;2.00;;
31238;SDS011;17871;31.584;74.450;2022-08-19T09:35:43;11.20;;;2.13;;
31238;SDS011;17871;31.584;74.450;2022-08-19T09:38:21;8.90;;;1.88;;
31238;SDS011;17871;31.584;74.450;2022-08-19T09:40:52;7.75;;;1.83;;
31238;SDS011;17871;31.584;74.450;2022-08-19T09:43:28;2.40;;;1.58;;
31238;SDS011;17871;31.584;74.450;2022-08-19T09:46:16;11.73;;;2.20;;
31238;SDS011;17871;31.584;74.450;2022-08-19T09:48:53;7.10;;;2.17;;
31238;SDS011;17871;31.584;74.450;2022-08-19T09:51:32;4.55;;;1.60;;
31238;SDS011;17871;31.584;74.450;2022-08-19T09:54:07;3.13;;;1.60;;
31238;SDS011;17871;31.584;74.450;2022-08-19T09:56:49;6.40;;;2.10;;
31238;SDS011;17871;31.584;74.450;2022-08-19T09:59:23;16.70;;;2.83;;
31238;SDS011;17871;31.584;74.450;2022-08-19T10:01:52;11.73;;;2.60;;
31238;SDS011;17871;31.584;74.450;2022-08-19T10:04:30;12.40;;;2.38;;
31238;SDS011;17871;31.584;74.450;2022-08-19T10:07:19;14.63;;;2.20;;
31238;SDS011;17871;31.584;74.450;2022-08-19T10:09:55;6.03;;;1.48;;
31238;SDS011;17871;31.584;74.450;2022-08-19T10:12:24;8.73;;;1.75;;
31238;SDS011;17871;31.584;74.450;2022-08-19T10:14:53;45.65;;;3.88;;
31238;SDS011;17871;31.584;74.450;2022-08-19T10:17:24;6.20;;;2.95;;
31238;SDS011;17871;31.584;74.450;2022-08-19T10:19:59;7.38;;;2.75;;
31238;SDS011;17871;31.584;74.450;2022-08-19T10:22:30;12.02;;;2.22;;
31238;SDS011;17871;31.584;74.450;2022-08-19T10:24:59;4.40;;;1.38;;
31238;SDS011;17871;31.584;74.450;2022-08-19T10:27:28;12.70;;;1.63;;
31238;SDS011;17871;31.584;74.450;2022-08-19T10:30:02;26.02;;;3.22;;
31238;SDS011;17871;31.584;74.450;2022-08-19T10:32:37;17.63;;;2.20;;
31238;SDS011;17871;31.584;74.450;2022-08-19T10:35:12;9.18;;;2.53;;
31238;SDS011;17871;31.584;74.450;2022-08-19T10:37:48;6.03;;;2.45;;
31238;SDS011;17871;31.584;74.450;2022-08-19T10:40:28;3.20;;;1.70;;
31238;SDS011;17871;31.584;74.450;2022-08-19T10:42:57;9.70;;;2.60;;
31238;SDS011;17871;31.584;74.450;2022-08-19T10:45:27;18.10;;;2.00;;
31238;SDS011;17871;31.584;74.450;2022-08-19T10:47:56;13.73;;;2.53;;
31238;SDS011;17871;31.584;74.450;2022-08-19T10:50:26;14.43;;;2.00;;
31238;SDS011;17871;31.584;74.450;2022-08-19T10:53:14;27.30;;;3.72;;
31238;SDS011;17871;31.584;74.450;2022-08-19T10:55:44;21.10;;;3.85;;
31238;SDS011;17871;31.584;74.450;2022-08-19T10:58:31;10.57;;;2.33;;
31238;SDS011;17871;31.584;74.450;2022-08-19T11:01:00;13.25;;;2.30;;
31238;SDS011;17871;31.584;74.450;2022-08-19T11:03:30;6.05;;;1.92;;
31238;SDS011;17871;31.584;74.450;2022-08-19T11:06:00;6.72;;;1.45;;
31238;SDS011;17871;31.584;74.450;2022-08-19T11:08:30;13.68;;;1.80;;
31238;SDS011;17871;31.584;74.450;2022-08-19T11:11:00;24.65;;;2.67;;
31238;SDS011;17871;31.584;74.450;2022-08-19T11:13:32;11.93;;;1.90;;
31238;SDS011;17871;31.584;74.450;2022-08-19T11:16:09;9.40;;;1.55;;
31238;SDS011;17871;31.584;74.450;2022-08-19T11:18:42;8.88;;;2.05;;
31238;SDS011;17871;31.584;74.450;2022-08-19T11:21:15;18.50;;;4.97;;
31238;SDS011;17871;31.584;74.450;2022-08-19T11:23:51;50.80;;;11.38;;
31238;SDS011;17871;31.584;74.450;2022-08-19T11:26:23;51.00;;;18.52;;
31238;SDS011;17871;31.584;74.450;2022-08-19T11:28:53;20.52;;;9.65;;
31238;SDS011;17871;31.584;74.450;2022-08-19T11:31:24;29.33;;;9.00;;
31238;SDS011;17871;31.584;74.450;2022-08-19T11:33:59;16.83;;;3.65;;
31238;SDS011;17871;31.584;74.450;2022-08-19T11:36:29;11.52;;;3.05;;
31238;SDS011;17871;31.584;74.450;2022-08-19T11:39:01;14.43;;;5.33;;
31238;SDS011;17871;31.584;74.450;2022-08-19T11:41:32;16.93;;;4.33;;
31238;SDS011;17871;31.584;74.450;2022-08-19T11:44:01;13.48;;;4.05;;
31238;SDS011;17871;31.584;74.450;2022-08-19T11:46:32;36.03;;;6.30;;
31238;SDS011;17871;31.584;74.450;2022-08-19T11:49:03;40.40;;;4.55;;
31238;SDS011;17871;31.584;74.450;2022-08-19T11:51:39;35.38;;;2.90;;
31238;SDS011;17871;31.584;74.450;2022-08-19T11:54:11;21.13;;;4.80;;
31238;SDS011;17871;31.584;74.450;2022-08-19T11:56:43;19.35;;;6.72;;
31238;SDS011;17871;31.584;74.450;2022-08-19T12:01:44;30.50;;;5.30;;
31238;SDS011;17871;31.584;74.450;2022-08-19T12:04:13;34.70;;;5.53;;
31238;SDS011;17871;31.584;74.450;2022-08-19T12:06:44;33.63;;;13.40;;
31238;SDS011;17871;31.584;74.450;2022-08-19T12:09:13;12.02;;;4.53;;
31238;SDS011;17871;31.584;74.450;2022-08-19T12:11:43;31.20;;;6.45;;
31238;SDS011;17871;31.584;74.450;2022-08-19T12:14:12;25.65;;;6.97;;
31238;SDS011;17871;31.584;74.450;2022-08-19T12:16:44;20.15;;;6.65;;
31238;SDS011;17871;31.584;74.450;2022-08-19T12:19:18;42.60;;;8.00;;
31238;SDS011;17871;31.584;74.450;2022-08-19T12:21:48;16.63;;;5.68;;
31238;SDS011;17871;31.584;74.450;2022-08-19T12:24:19;10.40;;;2.00;;
31238;SDS011;17871;31.584;74.450;2022-08-19T12:26:51;9.50;;;1.98;;
31238;SDS011;17871;31.584;74.450;2022-08-19T12:29:27;21.52;;;2.05;;
31238;SDS011;17871;31.584;74.450;2022-08-19T12:32:04;56.63;;;3.78;;
31238;SDS011;17871;31.584;74.450;2022-08-19T12:34:36;24.25;;;2.20;;
31238;SDS011;17871;31.584;74.450;2022-08-19T12:37:06;28.25;;;2.70;;
31238;SDS011;17871;31.584;74.450;2022-08-19T12:39:36;69.63;;;5.57;;
31238;SDS011;17871;31.584;74.450;2022-08-19T12:42:10;23.48;;;2.83;;
31238;SDS011;17871;31.584;74.450;2022-08-19T12:44:41;15.65;;;2.17;;
31238;SDS011;17871;31.584;74.450;2022-08-19T12:47:12;11.45;;;2.75;;
31238;SDS011;17871;31.584;74.450;2022-08-19T12:49:45;36.40;;;3.83;;
31238;SDS011;17871;31.584;74.450;2022-08-19T12:52:24;10.50;;;2.08;;
31238;SDS011;17871;31.584;74.450;2022-08-19T12:54:55;18.33;;;2.55;;
31238;SDS011;17871;31.584;74.450;2022-08-19T12:57:26;12.68;;;2.45;;
31238;SDS011;17871;31.584;74.450;2022-08-19T13:00:09;9.48;;;3.35;;
31238;SDS011;17871;31.584;74.450;2022-08-19T13:02:49;19.25;;;2.60;;
31238;SDS011;17871;31.584;74.450;2022-08-19T13:05:22;167.15;;;13.48;;
31238;SDS011;17871;31.584;74.450;2022-08-19T13:07:54;24.92;;;3.92;;
31238;SDS011;17871;31.584;74.450;2022-08-19T13:10:27;12.95;;;2.53;;
31238;SDS011;17871;31.584;74.450;2022-08-19T13:13:04;28.48;;;3.33;;
31238;SDS011;17871;31.584;74.450;2022-08-19T13:15:37;35.72;;;4.00;;
31238;SDS011;17871;31.584;74.450;2022-08-19T13:18:14;19.10;;;2.25;;
31238;SDS011;17871;31.584;74.450;2022-08-19T13:20:47;24.77;;;3.00;;
31238;SDS011;17871;31.584;74.450;2022-08-19T13:23:19;84.53;;;6.97;;
31238;SDS011;17871;31.584;74.450;2022-08-19T13:25:58;26.45;;;3.33;;
31238;SDS011;17871;31.584;74.450;2022-08-19T13:28:28;34.42;;;3.13;;
31238;SDS011;17871;31.584;74.450;2022-08-19T13:31:17;31.40;;;3.33;;
31238;SDS011;17871;31.584;74.450;2022-08-19T13:34:06;39.70;;;4.72;;
31238;SDS011;17871;31.584;74.450;2022-08-19T13:36:36;12.68;;;3.15;;
31238;SDS011;17871;31.584;74.450;2022-08-19T13:39:06;33.17;;;3.58;;
31238;SDS011;17871;31.584;74.450;2022-08-19T13:41:37;15.68;;;3.75;;
31238;SDS011;17871;31.584;74.450;2022-08-19T13:44:16;22.98;;;4.35;;
31238;SDS011;17871;31.584;74.450;2022-08-19T13:46:49;25.85;;;4.40;;
31238;SDS011;17871;31.584;74.450;2022-08-19T13:49:20;12.75;;;2.90;;
31238;SDS011;17871;31.584;74.450;2022-08-19T13:51:51;74.18;;;7.97;;
31238;SDS011;17871;31.584;74.450;2022-08-19T13:54:20;16.27;;;3.55;;
31238;SDS011;17871;31.584;74.450;2022-08-19T13:56:50;55.03;;;5.07;;
31238;SDS011;17871;31.584;74.450;2022-08-19T13:59:19;23.55;;;4.38;;
31238;SDS011;17871;31.584;74.450;2022-08-19T14:01:48;28.65;;;3.95;;
31238;SDS011;17871;31.584;74.450;2022-08-19T14:04:17;32.33;;;3.97;;
31238;SDS011;17871;31.584;74.450;2022-08-19T14:06:47;31.52;;;5.20;;
31238;SDS011;17871;31.584;74.450;2022-08-19T14:09:17;13.93;;;3.78;;
31238;SDS011;17871;31.584;74.450;2022-08-19T14:11:46;22.92;;;3.92;;
31238;SDS011;17871;31.584;74.450;2022-08-19T14:14:15;21.02;;;4.35;;
31238;SDS011;17871;31.584;74.450;2022-08-19T14:16:44;16.77;;;4.00;;
31238;SDS011;17871;31.584;74.450;2022-08-19T14:19:14;184.05;;;13.75;;
31238;SDS011;17871;31.584;74.450;2022-08-19T14:21:43;350.17;;;24.60;;
31238;SDS011;17871;31.584;74.450;2022-08-19T14:24:12;64.88;;;6.35;;
31238;SDS011;17871;31.584;74.450;2022-08-19T14:26:41;50.95;;;6.97;;
31238;SDS011;17871;31.584;74.450;2022-08-19T14:29:10;22.10;;;6.55;;
31238;SDS011;17871;31.584;74.450;2022-08-19T14:31:40;31.27;;;5.28;;
31238;SDS011;17871;31.584;74.450;2022-08-19T14:34:11;21.75;;;6.07;;
31238;SDS011;17871;31.584;74.450;2022-08-19T14:36:41;21.48;;;4.13;;
31238;SDS011;17871;31.584;74.450;2022-08-19T14:39:12;26.73;;;4.20;;
31238;SDS011;17871;31.584;74.450;2022-08-19T14:41:41;46.05;;;5.95;;
31238;SDS011;17871;31.584;74.450;2022-08-19T14:44:10;32.85;;;5.13;;
31238;SDS011;17871;31.584;74.450;2022-08-19T14:46:43;19.75;;;5.03;;
31238;SDS011;17871;31.584;74.450;2022-08-19T14:51:55;38.78;;;4.57;;
31238;SDS011;17871;31.584;74.450;2022-08-19T14:54:24;18.67;;;4.18;;
31238;SDS011;17871;31.584;74.450;2022-08-19T14:56:56;11.68;;;3.88;;
31238;SDS011;17871;31.584;74.450;2022-08-19T14:59:25;94.15;;;8.00;;
31238;SDS011;17871;31.584;74.450;2022-08-19T15:01:55;28.65;;;4.75;;
31238;SDS011;17871;31.584;74.450;2022-08-19T15:04:23;28.38;;;5.40;;
31238;SDS011;17871;31.584;74.450;2022-08-19T15:06:58;14.73;;;3.63;;
31238;SDS011;17871;31.584;74.450;2022-08-19T15:09:27;34.22;;;5.40;;
31238;SDS011;17871;31.584;74.450;2022-08-19T15:11:56;67.00;;;10.10;;
31238;SDS011;17871;31.584;74.450;2022-08-19T15:14:27;29.50;;;4.55;;
31238;SDS011;17871;31.584;74.450;2022-08-19T15:17:06;54.75;;;6.10;;
31238;SDS011;17871;31.584;74.450;2022-08-19T15:22:04;19.10;;;4.30;;
31238;SDS011;17871;31.584;74.450;2022-08-19T15:24:33;21.83;;;5.68;;
31238;SDS011;17871;31.584;74.450;2022-08-19T15:27:14;17.27;;;4.38;;
31238;SDS011;17871;31.584;74.450;2022-08-19T15:29:43;21.77;;;4.63;;
31238;SDS011;17871;31.584;74.450;2022-08-19T15:32:13;31.33;;;5.35;;
31238;SDS011;17871;31.584;74.450;2022-08-19T15:34:42;23.27;;;4.80;;
31238;SDS011;17871;31.584;74.450;2022-08-19T15:37:12;137.32;;;11.50;;
31238;SDS011;17871;31.584;74.450;2022-08-19T15:39:41;43.63;;;5.70;;
31238;SDS011;17871;31.584;74.450;2022-08-19T15:42:11;36.50;;;5.53;;
31238;SDS011;17871;31.584;74.450;2022-08-19T15:44:55;18.60;;;5.50;;
31238;SDS011;17871;31.584;74.450;2022-08-19T15:47:28;21.83;;;4.30;;
31238;SDS011;17871;31.584;74.450;2022-08-19T15:50:10;16.50;;;4.43;;
31238;SDS011;17871;31.584;74.450;2022-08-19T15:53:01;26.40;;;4.68;;
31238;SDS011;17871;31.584;74.450;2022-08-19T15:55:42;25.55;;;5.03;;
31238;SDS011;17871;31.584;74.450;2022-08-19T15:58:14;21.98;;;6.90;;
31238;SDS011;17871;31.584;74.450;2022-08-19T16:01:04;16.98;;;4.25;;
31238;SDS011;17871;31.584;74.450;2022-08-19T16:03:55;18.63;;;3.63;;
31238;SDS011;17871;31.584;74.450;2022-08-19T16:06:45;13.40;;;3.85;;
31238;SDS011;17871;31.584;74.450;2022-08-19T16:09:16;14.82;;;4.22;;
31238;SDS011;17871;31.584;74.450;2022-08-19T16:11:57;18.08;;;5.32;;
31238;SDS011;17871;31.584;74.450;2022-08-19T16:14:30;21.45;;;4.25;;
31238;SDS011;17871;31.584;74.450;2022-08-19T16:17:00;22.08;;;4.60;;
31238;SDS011;17871;31.584;74.450;2022-08-19T16:19:30;17.00;;;4.43;;
31238;SDS011;17871;31.584;74.450;2022-08-19T16:22:00;16.80;;;4.80;;
31238;SDS011;17871;31.584;74.450;2022-08-19T16:24:30;16.35;;;4.15;;
31238;SDS011;17871;31.584;74.450;2022-08-19T16:27:00;47.92;;;7.07;;
31238;SDS011;17871;31.584;74.450;2022-08-19T16:29:30;13.07;;;4.65;;
31238;SDS011;17871;31.584;74.450;2022-08-19T16:32:06;22.42;;;4.47;;
31238;SDS011;17871;31.584;74.450;2022-08-19T16:34:39;18.92;;;4.47;;
31238;SDS011;17871;31.584;74.450;2022-08-19T16:37:09;12.65;;;4.45;;
31238;SDS011;17871;31.584;74.450;2022-08-19T16:39:38;13.45;;;4.25;;
31238;SDS011;17871;31.584;74.450;2022-08-19T16:44:40;13.60;;;5.13;;
31238;SDS011;17871;31.584;74.450;2022-08-19T16:47:12;20.58;;;4.60;;
31238;SDS011;17871;31.584;74.450;2022-08-19T16:49:43;9.02;;;4.57;;
31238;SDS011;17871;31.584;74.450;2022-08-19T16:52:21;18.52;;;4.93;;
31238;SDS011;17871;31.584;74.450;2022-08-19T16:54:54;21.73;;;5.13;;
31238;SDS011;17871;31.584;74.450;2022-08-19T16:57:24;10.77;;;5.25;;
31238;SDS011;17871;31.584;74.450;2022-08-19T16:59:53;21.02;;;4.50;;
31238;SDS011;17871;31.584;74.450;2022-08-19T17:02:22;18.25;;;4.32;;
31238;SDS011;17871;31.584;74.450;2022-08-19T17:04:57;9.75;;;3.92;;
31238;SDS011;17871;31.584;74.450;2022-08-19T17:07:28;19.45;;;5.10;;
31238;SDS011;17871;31.584;74.450;2022-08-19T17:10:01;19.65;;;5.53;;
31238;SDS011;17871;31.584;74.450;2022-08-19T17:12:32;23.75;;;6.20;;
31238;SDS011;17871;31.584;74.450;2022-08-19T17:15:03;14.65;;;4.45;;
31238;SDS011;17871;31.584;74.450;2022-08-19T17:17:35;10.10;;;4.97;;
31238;SDS011;17871;31.584;74.450;2022-08-19T17:20:04;14.73;;;4.20;;
31238;SDS011;17871;31.584;74.450;2022-08-19T17:22:34;9.68;;;4.47;;
31238;SDS011;17871;31.584;74.450;2022-08-19T17:25:04;24.85;;;4.95;;
31238;SDS011;17871;31.584;74.450;2022-08-19T17:27:34;24.73;;;6.00;;
31238;SDS011;17871;31.584;74.450;2022-08-19T17:30:04;21.13;;;4.45;;
31238;SDS011;17871;31.584;74.450;2022-08-19T17:32:34;14.35;;;4.57;;
31238;SDS011;17871;31.584;74.450;2022-08-19T17:35:03;14.60;;;4.18;;
31238;SDS011;17871;31.584;74.450;2022-08-19T17:37:32;17.40;;;4.00;;
31238;SDS011;17871;31.584;74.450;2022-08-19T17:40:04;15.43;;;4.50;;
31238;SDS011;17871;31.584;74.450;2022-08-19T17:42:37;19.70;;;5.80;;
31238;SDS011;17871;31.584;74.450;2022-08-19T17:45:07;23.83;;;5.00;;
31238;SDS011;17871;31.584;74.450;2022-08-19T17:47:38;24.45;;;6.30;;
31238;SDS011;17871;31.584;74.450;2022-08-19T17:50:09;15.02;;;4.10;;
31238;SDS011;17871;31.584;74.450;2022-08-19T17:52:40;14.60;;;5.28;;
31238;SDS011;17871;31.584;74.450;2022-08-19T17:55:11;14.85;;;4.18;;
31238;SDS011;17871;31.584;74.450;2022-08-19T17:57:41;21.33;;;5.38;;
31238;SDS011;17871;31.584;74.450;2022-08-19T18:00:13;17.58;;;4.47;;
31238;SDS011;17871;31.584;74.450;2022-08-19T18:02:48;26.93;;;5.17;;
31238;SDS011;17871;31.584;74.450;2022-08-19T18:05:24;15.40;;;4.20;;
31238;SDS011;17871;31.584;74.450;2022-08-19T18:07:57;28.85;;;5.70;;
31238;SDS011;17871;31.584;74.450;2022-08-19T18:10:28;13.88;;;4.30;;
31238;SDS011;17871;31.584;74.450;2022-08-19T18:13:01;16.98;;;4.90;;
31238;SDS011;17871;31.584;74.450;2022-08-19T18:15:44;29.92;;;5.45;;
31238;SDS011;17871;31.584;74.450;2022-08-19T18:18:14;14.65;;;5.05;;
31238;SDS011;17871;31.584;74.450;2022-08-19T18:20:43;24.40;;;4.70;;
31238;SDS011;17871;31.584;74.450;2022-08-19T18:23:13;17.92;;;5.38;;
31238;SDS011;17871;31.584;74.450;2022-08-19T18:26:02;16.75;;;5.80;;
31238;SDS011;17871;31.584;74.450;2022-08-19T18:28:32;25.73;;;5.75;;
31238;SDS011;17871;31.584;74.450;2022-08-19T18:31:02;47.78;;;6.93;;
31238;SDS011;17871;31.584;74.450;2022-08-19T18:33:31;18.48;;;5.45;;
31238;SDS011;17871;31.584;74.450;2022-08-19T18:36:10;13.25;;;4.53;;
31238;SDS011;17871;31.584;74.450;2022-08-19T18:38:39;22.17;;;4.75;;
31238;SDS011;17871;31.584;74.450;2022-08-19T18:41:32;19.70;;;5.85;;
31238;SDS011;17871;31.584;74.450;2022-08-19T18:44:20;18.65;;;5.13;;
31238;SDS011;17871;31.584;74.450;2022-08-19T18:47:07;18.48;;;4.50;;
31238;SDS011;17871;31.584;74.450;2022-08-19T18:49:55;17.05;;;4.22;;
31238;SDS011;17871;31.584;74.450;2022-08-19T18:52:24;29.70;;;5.00;;
31238;SDS011;17871;31.584;74.450;2022-08-19T18:54:54;12.93;;;4.80;;
31238;SDS011;17871;31.584;74.450;2022-08-19T18:57:24;17.08;;;4.30;;
31238;SDS011;17871;31.584;74.450;2022-08-19T18:59:53;17.20;;;4.60;;
31238;SDS011;17871;31.584;74.450;2022-08-19T19:02:23;21.92;;;5.28;;
31238;SDS011;17871;31.584;74.450;2022-08-19T19:04:54;20.40;;;4.28;;
31238;SDS011;17871;31.584;74.450;2022-08-19T19:07:23;23.73;;;4.72;;
31238;SDS011;17871;31.584;74.450;2022-08-19T19:09:53;20.00;;;5.28;;
31238;SDS011;17871;31.584;74.450;2022-08-19T19:12:23;19.80;;;5.05;;
31238;SDS011;17871;31.584;74.450;2022-08-19T19:14:56;20.17;;;4.45;;
31238;SDS011;17871;31.584;74.450;2022-08-19T19:17:26;16.70;;;4.22;;
31238;SDS011;17871;31.584;74.450;2022-08-19T19:19:55;20.52;;;5.13;;
31238;SDS011;17871;31.584;74.450;2022-08-19T19:22:24;17.58;;;4.47;;
31238;SDS011;17871;31.584;74.450;2022-08-19T19:24:54;18.88;;;4.53;;
31238;SDS011;17871;31.584;74.450;2022-08-19T19:27:23;20.90;;;5.50;;
31238;SDS011;17871;31.584;74.450;2022-08-19T19:29:53;14.10;;;4.55;;
31238;SDS011;17871;31.584;74.450;2022-08-19T19:32:24;17.23;;;5.22;;
31238;SDS011;17871;31.584;74.450;2022-08-19T19:34:56;13.18;;;4.03;;
31238;SDS011;17871;31.584;74.450;2022-08-19T19:37:26;20.77;;;6.15;;
31238;SDS011;17871;31.584;74.450;2022-08-19T19:39:56;15.80;;;4.78;;
31238;SDS011;17871;31.584;74.450;2022-08-19T19:42:25;18.65;;;4.32;;
31238;SDS011;17871;31.584;74.450;2022-08-19T19:44:54;19.83;;;4.68;;
31238;SDS011;17871;31.584;74.450;2022-08-19T19:47:24;14.75;;;5.53;;
31238;SDS011;17871;31.584;74.450;2022-08-19T19:49:55;22.00;;;4.50;;
31238;SDS011;17871;31.584;74.450;2022-08-19T19:52:41;18.40;;;5.03;;
31238;SDS011;17871;31.584;74.450;2022-08-19T19:55:13;11.75;;;4.10;;
31238;SDS011;17871;31.584;74.450;2022-08-19T19:57:46;19.50;;;4.50;;
31238;SDS011;17871;31.584;74.450;2022-08-19T20:00:16;17.10;;;5.43;;
31238;SDS011;17871;31.584;74.450;2022-08-19T20:02:46;12.82;;;6.03;;
31238;SDS011;17871;31.584;74.450;2022-08-19T20:05:17;17.70;;;4.65;;
31238;SDS011;17871;31.584;74.450;2022-08-19T20:07:50;18.77;;;4.28;;
31238;SDS011;17871;31.584;74.450;2022-08-19T20:10:40;21.27;;;4.30;;
31238;SDS011;17871;31.584;74.450;2022-08-19T20:13:10;17.20;;;5.32;;
31238;SDS011;17871;31.584;74.450;2022-08-19T20:15:42;18.83;;;4.15;;
31238;SDS011;17871;31.584;74.450;2022-08-19T20:18:13;25.70;;;5.30;;
31238;SDS011;17871;31.584;74.450;2022-08-19T20:20:42;25.38;;;5.95;;
31238;SDS011;17871;31.584;74.450;2022-08-19T20:23:18;19.50;;;5.38;;
31238;SDS011;17871;31.584;74.450;2022-08-19T20:25:49;19.20;;;4.45;;
31238;SDS011;17871;31.584;74.450;2022-08-19T20:28:19;18.98;;;5.53;;
31238;SDS011;17871;31.584;74.450;2022-08-19T20:30:51;19.00;;;4.68;;
31238;SDS011;17871;31.584;74.450;2022-08-19T20:33:21;18.60;;;5.03;;
31238;SDS011;17871;31.584;74.450;2022-08-19T20:35:50;23.40;;;5.30;;
31238;SDS011;17871;31.584;74.450;2022-08-19T20:38:19;17.60;;;5.15;;
31238;SDS011;17871;31.584;74.450;2022-08-19T20:40:48;13.00;;;6.05;;
31238;SDS011;17871;31.584;74.450;2022-08-19T20:43:20;9.00;;;4.60;;
31238;SDS011;17871;31.584;74.450;2022-08-19T20:45:49;18.55;;;4.85;;
31238;SDS011;17871;31.584;74.450;2022-08-19T20:48:18;19.77;;;5.10;;
31238;SDS011;17871;31.584;74.450;2022-08-19T20:50:50;29.27;;;5.13;;
31238;SDS011;17871;31.584;74.450;2022-08-19T20:53:19;17.23;;;5.25;;
31238;SDS011;17871;31.584;74.450;2022-08-19T20:55:51;22.00;;;4.43;;
31238;SDS011;17871;31.584;74.450;2022-08-19T20:58:25;23.20;;;5.53;;
31238;SDS011;17871;31.584;74.450;2022-08-19T21:00:55;20.05;;;5.10;;
31238;SDS011;17871;31.584;74.450;2022-08-19T21:05:57;22.88;;;5.13;;
31238;SDS011;17871;31.584;74.450;2022-08-19T21:08:27;19.30;;;5.18;;
31238;SDS011;17871;31.584;74.450;2022-08-19T21:10:57;16.63;;;4.90;;
31238;SDS011;17871;31.584;74.450;2022-08-19T21:13:26;15.57;;;5.05;;
31238;SDS011;17871;31.584;74.450;2022-08-19T21:15:55;24.60;;;6.00;;
31238;SDS011;17871;31.584;74.450;2022-08-19T21:18:24;21.00;;;5.10;;
31238;SDS011;17871;31.584;74.450;2022-08-19T21:20:55;23.05;;;5.30;;
31238;SDS011;17871;31.584;74.450;2022-08-19T21:23:25;19.52;;;5.95;;
31238;SDS011;17871;31.584;74.450;2022-08-19T21:25:57;17.52;;;5.72;;
31238;SDS011;17871;31.584;74.450;2022-08-19T21:28:27;25.00;;;5.35;;
31238;SDS011;17871;31.584;74.450;2022-08-19T21:31:04;22.02;;;5.90;;
31238;SDS011;17871;31.584;74.450;2022-08-19T21:33:34;21.55;;;5.25;;
31238;SDS011;17871;31.584;74.450;2022-08-19T21:36:04;17.90;;;5.10;;
31238;SDS011;17871;31.584;74.450;2022-08-19T21:38:34;22.27;;;6.78;;
31238;SDS011;17871;31.584;74.450;2022-08-19T21:41:04;20.60;;;5.43;;
31238;SDS011;17871;31.584;74.450;2022-08-19T21:43:34;22.00;;;5.88;;
31238;SDS011;17871;31.584;74.450;2022-08-19T21:46:05;14.77;;;4.88;;
31238;SDS011;17871;31.584;74.450;2022-08-19T21:48:34;24.15;;;5.07;;
31238;SDS011;17871;31.584;74.450;2022-08-19T21:51:04;24.95;;;5.60;;
31238;SDS011;17871;31.584;74.450;2022-08-19T21:53:33;17.58;;;5.22;;
31238;SDS011;17871;31.584;74.450;2022-08-19T21:56:04;18.40;;;4.65;;
31238;SDS011;17871;31.584;74.450;2022-08-19T21:58:34;20.45;;;5.57;;
31238;SDS011;17871;31.584;74.450;2022-08-19T22:01:07;13.55;;;4.93;;
31238;SDS011;17871;31.584;74.450;2022-08-19T22:03:37;18.73;;;4.53;;